Bookmark and Share
Track history (hours):
 

Lauren L

Last reported at 2013-Jul-13 02:30 UTC. Time now 2014-Apr-18 00:18 UTC.
Position N 38°07' E 009°35'.
Warning: this ship's position is months out of date.

Length 91 m; draft 3.9 m.

Type: Ship. MMSI: 249228000.

NotesDate/timePositionNaut miles runAvg speedWind from/ knotsBaromVisibWave heightAir tempDewpointWater temp
2013-Jul-13 02:30N 38°07' E 009°35'49 3.7
2013-Jul-12 13:24N 37°21' E 009°55'8 8.8
2013-Jul-12 12:33N 37°29' E 009°55'26210.4
2013-Jul-11 11:22N 41°51' E 009°52'7212.4
2013-Jul-11 05:32N 43°03' E 009°38'1212.4
2013-Jul-11 04:33N 43°14' E 009°32'1312.6
2013-Jul-11 03:33N 43°26' E 009°26'1212.3
2013-Jul-11 02:34N 43°38' E 009°20'1211.9
2013-Jul-11 01:33N 43°49' E 009°14'1211.7
2013-Jul-11 00:33N 43°60' E 009°09'1212.3
2013-Jul-10 23:33N 44°11' E 009°03'1212.1
2013-Jul-10 22:33N 44°23' E 008°57'1 1.1
2013-Jul-10 21:31N 44°24' E 008°56'  
2013-Jul-03 07:32N 44°24' E 008°56'0 0.0
2013-Jul-03 06:29N 44°24' E 008°56'0 0.0
2013-Jul-03 05:29N 44°24' E 008°56'0 0.0
2013-Jul-03 04:29N 44°24' E 008°56'0 0.0
2013-Jul-03 03:32N 44°24' E 008°56'0 0.0
2013-Jul-03 02:32N 44°24' E 008°56'  

Dump ship's entire track history

sailing weather and tide predictions

Lauren L — 9HNJ9 — position and weather